sensor_id;sensor_type;location;lat;lon;timestamp;temperature;humidity
73750;SHT30;62058;48.406;-4.514;2023-05-07T00:00:45;15.66;92.15
73750;SHT30;62058;48.406;-4.514;2023-05-07T00:03:11;15.65;93.15
73750;SHT30;62058;48.406;-4.514;2023-05-07T00:05:36;15.65;91.56
73750;SHT30;62058;48.406;-4.514;2023-05-07T00:08:03;15.62;90.20
73750;SHT30;62058;48.406;-4.514;2023-05-07T00:10:28;15.65;91.78
73750;SHT30;62058;48.406;-4.514;2023-05-07T00:12:53;15.65;92.19
73750;SHT30;62058;48.406;-4.514;2023-05-07T00:15:19;15.69;91.38
73750;SHT30;62058;48.406;-4.514;2023-05-07T00:17:44;15.69;90.89
73750;SHT30;62058;48.406;-4.514;2023-05-07T00:20:10;15.66;93.13
73750;SHT30;62058;48.406;-4.514;2023-05-07T00:22:36;15.65;91.52
73750;SHT30;62058;48.406;-4.514;2023-05-07T00:25:01;15.65;91.21
73750;SHT30;62058;48.406;-4.514;2023-05-07T00:27:26;15.66;90.42
73750;SHT30;62058;48.406;-4.514;2023-05-07T00:29:52;15.63;91.23
73750;SHT30;62058;48.406;-4.514;2023-05-07T00:32:17;15.63;91.94
73750;SHT30;62058;48.406;-4.514;2023-05-07T00:34:43;15.65;93.18
73750;SHT30;62058;48.406;-4.514;2023-05-07T00:37:08;15.65;92.17
73750;SHT30;62058;48.406;-4.514;2023-05-07T00:39:34;15.66;92.16
73750;SHT30;62058;48.406;-4.514;2023-05-07T00:42:00;15.66;92.20
73750;SHT30;62058;48.406;-4.514;2023-05-07T00:44:26;15.69;93.76
73750;SHT30;62058;48.406;-4.514;2023-05-07T00:46:53;15.69;92.94
73750;SHT30;62058;48.406;-4.514;2023-05-07T00:49:19;15.66;93.47
73750;SHT30;62058;48.406;-4.514;2023-05-07T00:51:45;15.65;94.80
73750;SHT30;62058;48.406;-4.514;2023-05-07T00:54:10;15.66;94.83
73750;SHT30;62058;48.406;-4.514;2023-05-07T00:56:36;15.66;94.28
73750;SHT30;62058;48.406;-4.514;2023-05-07T00:59:03;15.60;92.64
73750;SHT30;62058;48.406;-4.514;2023-05-07T01:01:28;15.60;91.76
73750;SHT30;62058;48.406;-4.514;2023-05-07T01:03:54;15.60;93.43
73750;SHT30;62058;48.406;-4.514;2023-05-07T01:06:20;15.55;92.19
73750;SHT30;62058;48.406;-4.514;2023-05-07T01:08:48;15.56;92.06
73750;SHT30;62058;48.406;-4.514;2023-05-07T01:11:16;15.56;91.31
73750;SHT30;62058;48.406;-4.514;2023-05-07T01:13:42;15.59;92.79
73750;SHT30;62058;48.406;-4.514;2023-05-07T01:16:09;15.59;92.15
73750;SHT30;62058;48.406;-4.514;2023-05-07T01:18:34;15.58;90.10
73750;SHT30;62058;48.406;-4.514;2023-05-07T01:21:01;15.59;92.24
73750;SHT30;62058;48.406;-4.514;2023-05-07T01:23:29;15.59;91.41
73750;SHT30;62058;48.406;-4.514;2023-05-07T01:25:55;15.62;93.44
73750;SHT30;62058;48.406;-4.514;2023-05-07T01:28:21;15.60;91.63
73750;SHT30;62058;48.406;-4.514;2023-05-07T01:30:51;15.59;91.41
73750;SHT30;62058;48.406;-4.514;2023-05-07T01:33:20;15.58;90.47
73750;SHT30;62058;48.406;-4.514;2023-05-07T01:35:51;15.58;89.67
73750;SHT30;62058;48.406;-4.514;2023-05-07T01:38:18;15.55;93.83
73750;SHT30;62058;48.406;-4.514;2023-05-07T01:40:44;15.53;93.19
73750;SHT30;62058;48.406;-4.514;2023-05-07T01:43:10;15.53;91.09
73750;SHT30;62058;48.406;-4.514;2023-05-07T01:45:36;15.53;92.87
73750;SHT30;62058;48.406;-4.514;2023-05-07T01:48:02;15.49;89.98
73750;SHT30;62058;48.406;-4.514;2023-05-07T01:50:28;15.49;91.99
73750;SHT30;62058;48.406;-4.514;2023-05-07T01:52:55;15.49;94.05
73750;SHT30;62058;48.406;-4.514;2023-05-07T01:55:20;15.49;94.12
73750;SHT30;62058;48.406;-4.514;2023-05-07T01:57:45;15.52;92.94
73750;SHT30;62058;48.406;-4.514;2023-05-07T02:00:11;15.53;93.39
73750;SHT30;62058;48.406;-4.514;2023-05-07T02:02:36;15.48;92.73
73750;SHT30;62058;48.406;-4.514;2023-05-07T02:05:03;15.46;92.08
73750;SHT30;62058;48.406;-4.514;2023-05-07T02:07:29;15.43;93.02
73750;SHT30;62058;48.406;-4.514;2023-05-07T02:09:54;15.40;91.83
73750;SHT30;62058;48.406;-4.514;2023-05-07T02:12:20;15.42;93.47
73750;SHT30;62058;48.406;-4.514;2023-05-07T02:14:46;15.40;92.87
73750;SHT30;62058;48.406;-4.514;2023-05-07T02:17:11;15.43;91.12
73750;SHT30;62058;48.406;-4.514;2023-05-07T02:19:37;15.46;92.56
73750;SHT30;62058;48.406;-4.514;2023-05-07T02:22:02;15.48;93.93
73750;SHT30;62058;48.406;-4.514;2023-05-07T02:24:27;15.43;92.34
73750;SHT30;62058;48.406;-4.514;2023-05-07T02:26:53;15.42;90.99
73750;SHT30;62058;48.406;-4.514;2023-05-07T02:29:18;15.43;91.56
73750;SHT30;62058;48.406;-4.514;2023-05-07T02:31:44;15.39;90.37
73750;SHT30;62058;48.406;-4.514;2023-05-07T02:34:09;15.42;91.99
73750;SHT30;62058;48.406;-4.514;2023-05-07T02:36:34;15.40;91.58
73750;SHT30;62058;48.406;-4.514;2023-05-07T02:39:00;15.40;89.78
73750;SHT30;62058;48.406;-4.514;2023-05-07T02:41:25;15.36;91.91
73750;SHT30;62058;48.406;-4.514;2023-05-07T02:43:51;15.36;92.16
73750;SHT30;62058;48.406;-4.514;2023-05-07T02:46:16;15.34;89.67
73750;SHT30;62058;48.406;-4.514;2023-05-07T02:48:42;15.35;92.04
73750;SHT30;62058;48.406;-4.514;2023-05-07T02:51:08;15.38;93.50
73750;SHT30;62058;48.406;-4.514;2023-05-07T02:53:33;15.38;91.20
73750;SHT30;62058;48.406;-4.514;2023-05-07T02:56:00;15.36;93.27
73750;SHT30;62058;48.406;-4.514;2023-05-07T02:58:26;15.32;91.95
73750;SHT30;62058;48.406;-4.514;2023-05-07T03:00:51;15.29;90.45
73750;SHT30;62058;48.406;-4.514;2023-05-07T03:03:17;15.28;91.85
73750;SHT30;62058;48.406;-4.514;2023-05-07T03:05:43;15.28;91.72
73750;SHT30;62058;48.406;-4.514;2023-05-07T03:08:09;15.31;92.55
73750;SHT30;62058;48.406;-4.514;2023-05-07T03:10:35;15.32;93.26
73750;SHT30;62058;48.406;-4.514;2023-05-07T03:13:01;15.32;93.40
73750;SHT30;62058;48.406;-4.514;2023-05-07T03:15:26;15.35;93.02
73750;SHT30;62058;48.406;-4.514;2023-05-07T03:17:52;15.34;93.09
73750;SHT30;62058;48.406;-4.514;2023-05-07T03:20:17;15.36;94.14
73750;SHT30;62058;48.406;-4.514;2023-05-07T03:22:42;15.35;91.91
73750;SHT30;62058;48.406;-4.514;2023-05-07T03:25:08;15.31;92.93
73750;SHT30;62058;48.406;-4.514;2023-05-07T03:27:34;15.32;91.23
73750;SHT30;62058;48.406;-4.514;2023-05-07T03:30:00;15.36;92.10
73750;SHT30;62058;48.406;-4.514;2023-05-07T03:32:25;15.36;90.10
73750;SHT30;62058;48.406;-4.514;2023-05-07T03:34:50;15.39;90.40
73750;SHT30;62058;48.406;-4.514;2023-05-07T03:37:16;15.40;93.09
73750;SHT30;62058;48.406;-4.514;2023-05-07T03:39:41;15.38;91.46
73750;SHT30;62058;48.406;-4.514;2023-05-07T03:42:07;15.35;91.51
73750;SHT30;62058;48.406;-4.514;2023-05-07T03:44:32;15.38;94.05
73750;SHT30;62058;48.406;-4.514;2023-05-07T03:46:57;15.29;88.59
73750;SHT30;62058;48.406;-4.514;2023-05-07T03:49:23;15.29;93.33
73750;SHT30;62058;48.406;-4.514;2023-05-07T03:51:48;15.31;90.94
73750;SHT30;62058;48.406;-4.514;2023-05-07T03:54:14;15.31;93.75
73750;SHT30;62058;48.406;-4.514;2023-05-07T03:56:39;15.29;93.28
73750;SHT30;62058;48.406;-4.514;2023-05-07T03:59:05;15.29;93.04
73750;SHT30;62058;48.406;-4.514;2023-05-07T04:01:30;15.22;87.57
73750;SHT30;62058;48.406;-4.514;2023-05-07T04:03:55;15.25;92.38
73750;SHT30;62058;48.406;-4.514;2023-05-07T04:06:21;15.28;92.15
73750;SHT30;62058;48.406;-4.514;2023-05-07T04:08:46;15.24;88.43
73750;SHT30;62058;48.406;-4.514;2023-05-07T04:11:11;15.25;87.62
73750;SHT30;62058;48.406;-4.514;2023-05-07T04:13:37;15.27;88.89
73750;SHT30;62058;48.406;-4.514;2023-05-07T04:16:04;15.27;90.48
73750;SHT30;62058;48.406;-4.514;2023-05-07T04:18:30;15.29;91.35
73750;SHT30;62058;48.406;-4.514;2023-05-07T04:20:55;15.29;90.72
73750;SHT30;62058;48.406;-4.514;2023-05-07T04:23:21;15.29;89.90
73750;SHT30;62058;48.406;-4.514;2023-05-07T04:25:46;15.29;90.38
73750;SHT30;62058;48.406;-4.514;2023-05-07T04:28:12;15.29;92.10
73750;SHT30;62058;48.406;-4.514;2023-05-07T04:30:37;15.27;93.53
73750;SHT30;62058;48.406;-4.514;2023-05-07T04:33:03;15.21;92.34
73750;SHT30;62058;48.406;-4.514;2023-05-07T04:35:28;15.18;90.47
73750;SHT30;62058;48.406;-4.514;2023-05-07T04:37:54;15.14;90.88
73750;SHT30;62058;48.406;-4.514;2023-05-07T04:40:19;15.12;88.20
73750;SHT30;62058;48.406;-4.514;2023-05-07T04:42:45;15.09;87.70
73750;SHT30;62058;48.406;-4.514;2023-05-07T04:45:10;15.04;87.98
73750;SHT30;62058;48.406;-4.514;2023-05-07T04:47:37;14.97;88.14
73750;SHT30;62058;48.406;-4.514;2023-05-07T04:50:03;14.94;88.36
73750;SHT30;62058;48.406;-4.514;2023-05-07T04:52:28;14.89;88.52
73750;SHT30;62058;48.406;-4.514;2023-05-07T04:54:53;14.91;87.34
73750;SHT30;62058;48.406;-4.514;2023-05-07T04:57:19;14.91;87.21
73750;SHT30;62058;48.406;-4.514;2023-05-07T04:59:47;14.84;87.37
73750;SHT30;62058;48.406;-4.514;2023-05-07T05:02:12;14.85;87.52
73750;SHT30;62058;48.406;-4.514;2023-05-07T05:04:38;14.84;88.14
73750;SHT30;62058;48.406;-4.514;2023-05-07T05:07:03;14.81;88.79
73750;SHT30;62058;48.406;-4.514;2023-05-07T05:09:29;14.83;89.64
73750;SHT30;62058;48.406;-4.514;2023-05-07T05:11:55;14.84;89.45
73750;SHT30;62058;48.406;-4.514;2023-05-07T05:14:20;14.83;87.03
73750;SHT30;62058;48.406;-4.514;2023-05-07T05:16:46;14.87;89.36
73750;SHT30;62058;48.406;-4.514;2023-05-07T05:19:11;14.87;87.87
73750;SHT30;62058;48.406;-4.514;2023-05-07T05:21:36;14.88;87.36
73750;SHT30;62058;48.406;-4.514;2023-05-07T05:24:02;14.95;89.88
73750;SHT30;62058;48.406;-4.514;2023-05-07T05:26:27;14.98;88.06
73750;SHT30;62058;48.406;-4.514;2023-05-07T05:28:53;15.02;90.92
73750;SHT30;62058;48.406;-4.514;2023-05-07T05:31:18;15.07;89.26
73750;SHT30;62058;48.406;-4.514;2023-05-07T05:33:43;15.08;89.76
73750;SHT30;62058;48.406;-4.514;2023-05-07T05:36:09;15.15;87.67
73750;SHT30;62058;48.406;-4.514;2023-05-07T05:38:35;15.19;90.41
73750;SHT30;62058;48.406;-4.514;2023-05-07T05:41:01;15.28;90.92
73750;SHT30;62058;48.406;-4.514;2023-05-07T05:43:26;15.31;88.09
73750;SHT30;62058;48.406;-4.514;2023-05-07T05:45:51;15.38;87.89
73750;SHT30;62058;48.406;-4.514;2023-05-07T05:48:17;15.40;89.17
73750;SHT30;62058;48.406;-4.514;2023-05-07T05:50:42;15.46;89.10
73750;SHT30;62058;48.406;-4.514;2023-05-07T05:53:08;15.55;92.23
73750;SHT30;62058;48.406;-4.514;2023-05-07T05:55:35;15.58;85.71
73750;SHT30;62058;48.406;-4.514;2023-05-07T05:58:01;15.63;91.62
73750;SHT30;62058;48.406;-4.514;2023-05-07T06:00:27;15.65;88.25
73750;SHT30;62058;48.406;-4.514;2023-05-07T06:02:52;15.69;88.72
73750;SHT30;62058;48.406;-4.514;2023-05-07T06:05:18;15.80;87.35
73750;SHT30;62058;48.406;-4.514;2023-05-07T06:07:43;15.85;88.09
73750;SHT30;62058;48.406;-4.514;2023-05-07T06:10:09;15.91;89.69
73750;SHT30;62058;48.406;-4.514;2023-05-07T06:12:34;15.94;89.09
73750;SHT30;62058;48.406;-4.514;2023-05-07T06:15:00;16.01;88.86
73750;SHT30;62058;48.406;-4.514;2023-05-07T06:17:25;16.01;85.32
73750;SHT30;62058;48.406;-4.514;2023-05-07T06:19:51;16.10;90.46
73750;SHT30;62058;48.406;-4.514;2023-05-07T06:22:17;16.10;89.90
73750;SHT30;62058;48.406;-4.514;2023-05-07T06:24:42;16.10;87.28
73750;SHT30;62058;48.406;-4.514;2023-05-07T06:27:08;16.20;86.73
73750;SHT30;62058;48.406;-4.514;2023-05-07T06:29:33;16.21;85.07
73750;SHT30;62058;48.406;-4.514;2023-05-07T06:32:13;16.30;87.80
73750;SHT30;62058;48.406;-4.514;2023-05-07T06:34:39;16.34;86.22
73750;SHT30;62058;48.406;-4.514;2023-05-07T06:37:05;16.34;84.86
73750;SHT30;62058;48.406;-4.514;2023-05-07T06:39:31;16.41;84.86
73750;SHT30;62058;48.406;-4.514;2023-05-07T06:41:56;16.41;88.23
73750;SHT30;62058;48.406;-4.514;2023-05-07T06:44:21;16.38;84.30
73750;SHT30;62058;48.406;-4.514;2023-05-07T06:46:47;16.43;86.14
73750;SHT30;62058;48.406;-4.514;2023-05-07T06:49:13;16.41;81.71
73750;SHT30;62058;48.406;-4.514;2023-05-07T06:51:38;16.47;85.99
73750;SHT30;62058;48.406;-4.514;2023-05-07T06:54:04;16.52;83.88
73750;SHT30;62058;48.406;-4.514;2023-05-07T06:56:30;16.64;88.27
73750;SHT30;62058;48.406;-4.514;2023-05-07T06:58:56;16.65;84.89
73750;SHT30;62058;48.406;-4.514;2023-05-07T07:01:21;16.67;84.68
73750;SHT30;62058;48.406;-4.514;2023-05-07T07:03:46;16.75;88.07
73750;SHT30;62058;48.406;-4.514;2023-05-07T07:06:12;16.81;85.00
73750;SHT30;62058;48.406;-4.514;2023-05-07T07:08:38;16.81;85.05
73750;SHT30;62058;48.406;-4.514;2023-05-07T07:11:04;16.84;87.32
73750;SHT30;62058;48.406;-4.514;2023-05-07T07:13:29;16.88;86.05
73750;SHT30;62058;48.406;-4.514;2023-05-07T07:15:55;16.95;85.72
73750;SHT30;62058;48.406;-4.514;2023-05-07T07:18:20;17.04;85.76
73750;SHT30;62058;48.406;-4.514;2023-05-07T07:20:46;17.09;84.50
73750;SHT30;62058;48.406;-4.514;2023-05-07T07:23:11;17.20;79.00
73750;SHT30;62058;48.406;-4.514;2023-05-07T07:25:36;17.29;83.59
73750;SHT30;62058;48.406;-4.514;2023-05-07T07:28:02;17.40;84.07
73750;SHT30;62058;48.406;-4.514;2023-05-07T07:30:27;17.45;85.39
73750;SHT30;62058;48.406;-4.514;2023-05-07T07:32:53;17.43;83.06
73750;SHT30;62058;48.406;-4.514;2023-05-07T07:35:19;17.47;82.27
73750;SHT30;62058;48.406;-4.514;2023-05-07T07:37:44;17.56;78.90
73750;SHT30;62058;48.406;-4.514;2023-05-07T07:40:10;17.63;77.84
73750;SHT30;62058;48.406;-4.514;2023-05-07T07:42:36;17.74;85.48
73750;SHT30;62058;48.406;-4.514;2023-05-07T07:45:02;17.87;80.15
73750;SHT30;62058;48.406;-4.514;2023-05-07T07:47:27;17.97;79.38
73750;SHT30;62058;48.406;-4.514;2023-05-07T07:49:53;18.10;77.17
73750;SHT30;62058;48.406;-4.514;2023-05-07T07:52:18;18.24;78.72
73750;SHT30;62058;48.406;-4.514;2023-05-07T07:54:44;18.44;78.05
73750;SHT30;62058;48.406;-4.514;2023-05-07T07:57:10;18.49;79.42
73750;SHT30;62058;48.406;-4.514;2023-05-07T07:59:35;18.68;83.75
73750;SHT30;62058;48.406;-4.514;2023-05-07T08:02:01;18.71;73.09
73750;SHT30;62058;48.406;-4.514;2023-05-07T08:04:26;18.77;81.34
73750;SHT30;62058;48.406;-4.514;2023-05-07T08:06:52;18.79;83.04
73750;SHT30;62058;48.406;-4.514;2023-05-07T08:09:19;18.86;84.17
73750;SHT30;62058;48.406;-4.514;2023-05-07T08:11:44;18.89;75.70
73750;SHT30;62058;48.406;-4.514;2023-05-07T08:14:10;18.93;82.95
73750;SHT30;62058;48.406;-4.514;2023-05-07T08:16:36;18.96;75.58
73750;SHT30;62058;48.406;-4.514;2023-05-07T08:19:01;18.99;78.22
73750;SHT30;62058;48.406;-4.514;2023-05-07T08:21:26;19.02;76.55
73750;SHT30;62058;48.406;-4.514;2023-05-07T08:23:52;19.09;75.94
73750;SHT30;62058;48.406;-4.514;2023-05-07T08:26:17;19.24;75.91
73750;SHT30;62058;48.406;-4.514;2023-05-07T08:28:43;19.37;78.32
73750;SHT30;62058;48.406;-4.514;2023-05-07T08:31:08;19.50;79.49
73750;SHT30;62058;48.406;-4.514;2023-05-07T08:33:33;19.63;81.18
73750;SHT30;62058;48.406;-4.514;2023-05-07T08:35:59;19.64;74.63
73750;SHT30;62058;48.406;-4.514;2023-05-07T08:38:24;19.73;70.39
73750;SHT30;62058;48.406;-4.514;2023-05-07T08:40:49;19.88;80.58
73750;SHT30;62058;48.406;-4.514;2023-05-07T08:43:16;19.85;79.45
73750;SHT30;62058;48.406;-4.514;2023-05-07T08:45:45;19.75;72.12
73750;SHT30;62058;48.406;-4.514;2023-05-07T08:48:17;19.63;73.29
73750;SHT30;62058;48.406;-4.514;2023-05-07T08:50:42;19.60;72.21
73750;SHT30;62058;48.406;-4.514;2023-05-07T08:53:08;19.68;78.33
73750;SHT30;62058;48.406;-4.514;2023-05-07T08:55:33;19.74;69.95
73750;SHT30;62058;48.406;-4.514;2023-05-07T08:57:59;19.79;71.04
73750;SHT30;62058;48.406;-4.514;2023-05-07T09:00:25;19.77;73.56
73750;SHT30;62058;48.406;-4.514;2023-05-07T09:02:51;19.77;73.13
73750;SHT30;62058;48.406;-4.514;2023-05-07T09:05:17;19.84;72.63
73750;SHT30;62058;48.406;-4.514;2023-05-07T09:07:42;19.95;79.30
73750;SHT30;62058;48.406;-4.514;2023-05-07T09:10:08;20.01;77.73
73750;SHT30;62058;48.406;-4.514;2023-05-07T09:12:33;20.09;72.44
73750;SHT30;62058;48.406;-4.514;2023-05-07T09:15:00;20.24;73.41
73750;SHT30;62058;48.406;-4.514;2023-05-07T09:17:26;20.40;81.72
73750;SHT30;62058;48.406;-4.514;2023-05-07T09:19:52;20.50;72.24
73750;SHT30;62058;48.406;-4.514;2023-05-07T09:22:18;20.56;79.89
73750;SHT30;62058;48.406;-4.514;2023-05-07T09:24:50;20.56;70.06
73750;SHT30;62058;48.406;-4.514;2023-05-07T09:27:17;20.66;80.92
73750;SHT30;62058;48.406;-4.514;2023-05-07T09:29:43;20.66;71.82
73750;SHT30;62058;48.406;-4.514;2023-05-07T09:32:09;20.76;77.74
73750;SHT30;62058;48.406;-4.514;2023-05-07T09:34:35;20.86;73.68
73750;SHT30;62058;48.406;-4.514;2023-05-07T09:37:05;20.93;71.86
73750;SHT30;62058;48.406;-4.514;2023-05-07T09:39:47;21.04;78.40
73750;SHT30;62058;48.406;-4.514;2023-05-07T09:42:13;21.00;75.00
73750;SHT30;62058;48.406;-4.514;2023-05-07T09:44:43;20.97;76.08
73750;SHT30;62058;48.406;-4.514;2023-05-07T09:47:10;20.99;68.96
73750;SHT30;62058;48.406;-4.514;2023-05-07T09:49:39;21.03;68.88
73750;SHT30;62058;48.406;-4.514;2023-05-07T09:52:07;21.26;67.79
73750;SHT30;62058;48.406;-4.514;2023-05-07T09:54:36;21.48;75.62
73750;SHT30;62058;48.406;-4.514;2023-05-07T09:57:04;21.58;72.44
73750;SHT30;62058;48.406;-4.514;2023-05-07T09:59:32;21.52;71.14
73750;SHT30;62058;48.406;-4.514;2023-05-07T10:01:58;21.51;72.67
73750;SHT30;62058;48.406;-4.514;2023-05-07T10:04:27;21.55;72.84
73750;SHT30;62058;48.406;-4.514;2023-05-07T10:06:53;21.42;71.82
73750;SHT30;62058;48.406;-4.514;2023-05-07T10:09:21;21.42;67.97
73750;SHT30;62058;48.406;-4.514;2023-05-07T10:11:48;21.34;72.02
73750;SHT30;62058;48.406;-4.514;2023-05-07T10:14:14;21.26;65.93
73750;SHT30;62058;48.406;-4.514;2023-05-07T10:16:40;21.30;71.44
73750;SHT30;62058;48.406;-4.514;2023-05-07T10:19:08;21.51;72.86
73750;SHT30;62058;48.406;-4.514;2023-05-07T10:21:40;21.65;66.72
73750;SHT30;62058;48.406;-4.514;2023-05-07T10:24:15;21.78;70.71
73750;SHT30;62058;48.406;-4.514;2023-05-07T10:26:43;21.81;62.95
73750;SHT30;62058;48.406;-4.514;2023-05-07T10:34:53;21.95;72.06
73750;SHT30;62058;48.406;-4.514;2023-05-07T10:37:19;21.98;66.42
73750;SHT30;62058;48.406;-4.514;2023-05-07T10:39:45;22.12;75.78
73750;SHT30;62058;48.406;-4.514;2023-05-07T10:42:11;22.23;65.81
73750;SHT30;62058;48.406;-4.514;2023-05-07T10:44:37;22.40;61.32
73750;SHT30;62058;48.406;-4.514;2023-05-07T10:47:07;22.63;71.65
73750;SHT30;62058;48.406;-4.514;2023-05-07T10:52:16;22.77;72.71
73750;SHT30;62058;48.406;-4.514;2023-05-07T10:54:42;22.67;66.84
73750;SHT30;62058;48.406;-4.514;2023-05-07T10:59:53;22.33;73.19
73750;SHT30;62058;48.406;-4.514;2023-05-07T11:02:19;22.24;64.95
73750;SHT30;62058;48.406;-4.514;2023-05-07T11:04:45;22.06;68.73
73750;SHT30;62058;48.406;-4.514;2023-05-07T11:07:29;21.92;74.25
73750;SHT30;62058;48.406;-4.514;2023-05-07T11:15:09;21.77;66.88
73750;SHT30;62058;48.406;-4.514;2023-05-07T11:17:52;21.88;74.03
73750;SHT30;62058;48.406;-4.514;2023-05-07T11:20:19;21.95;69.39
73750;SHT30;62058;48.406;-4.514;2023-05-07T11:22:44;21.99;69.89
73750;SHT30;62058;48.406;-4.514;2023-05-07T11:25:10;22.05;68.97
73750;SHT30;62058;48.406;-4.514;2023-05-07T11:27:36;22.29;66.36
73750;SHT30;62058;48.406;-4.514;2023-05-07T11:30:01;22.56;69.65
73750;SHT30;62058;48.406;-4.514;2023-05-07T11:32:31;22.95;68.63
73750;SHT30;62058;48.406;-4.514;2023-05-07T11:34:58;23.41;63.19
73750;SHT30;62058;48.406;-4.514;2023-05-07T11:37:25;23.76;70.65
73750;SHT30;62058;48.406;-4.514;2023-05-07T11:40:04;23.79;66.25
73750;SHT30;62058;48.406;-4.514;2023-05-07T11:42:36;23.65;77.21
73750;SHT30;62058;48.406;-4.514;2023-05-07T11:45:07;23.37;67.00
73750;SHT30;62058;48.406;-4.514;2023-05-07T11:47:33;23.14;66.94
73750;SHT30;62058;48.406;-4.514;2023-05-07T11:50:07;22.90;68.41
73750;SHT30;62058;48.406;-4.514;2023-05-07T11:52:33;22.68;67.70
73750;SHT30;62058;48.406;-4.514;2023-05-07T11:55:01;22.44;66.55
73750;SHT30;62058;48.406;-4.514;2023-05-07T11:57:28;22.22;73.32
73750;SHT30;62058;48.406;-4.514;2023-05-07T11:59:57;21.89;73.18
73750;SHT30;62058;48.406;-4.514;2023-05-07T12:02:24;21.61;66.99
73750;SHT30;62058;48.406;-4.514;2023-05-07T12:04:50;21.31;75.48
73750;SHT30;62058;48.406;-4.514;2023-05-07T12:07:16;20.84;65.66
73750;SHT30;62058;48.406;-4.514;2023-05-07T12:09:43;20.63;69.55
73750;SHT30;62058;48.406;-4.514;2023-05-07T12:12:09;20.50;74.68
73750;SHT30;62058;48.406;-4.514;2023-05-07T12:14:39;20.40;73.92
73750;SHT30;62058;48.406;-4.514;2023-05-07T12:17:05;20.32;73.92
73750;SHT30;62058;48.406;-4.514;2023-05-07T12:19:33;20.24;69.20
73750;SHT30;62058;48.406;-4.514;2023-05-07T12:21:58;20.19;77.46
73750;SHT30;62058;48.406;-4.514;2023-05-07T12:24:24;20.16;78.26
73750;SHT30;62058;48.406;-4.514;2023-05-07T12:26:50;20.04;73.76
73750;SHT30;62058;48.406;-4.514;2023-05-07T12:29:15;19.91;73.52
73750;SHT30;62058;48.406;-4.514;2023-05-07T12:31:43;19.78;70.25
73750;SHT30;62058;48.406;-4.514;2023-05-07T12:34:12;19.60;77.11
73750;SHT30;62058;48.406;-4.514;2023-05-07T12:36:38;19.37;71.24
73750;SHT30;62058;48.406;-4.514;2023-05-07T12:39:07;19.23;70.12
73750;SHT30;62058;48.406;-4.514;2023-05-07T12:41:52;19.27;74.12
73750;SHT30;62058;48.406;-4.514;2023-05-07T12:44:18;19.35;74.03
73750;SHT30;62058;48.406;-4.514;2023-05-07T12:46:43;19.55;78.46
73750;SHT30;62058;48.406;-4.514;2023-05-07T12:49:09;19.65;70.03
73750;SHT30;62058;48.406;-4.514;2023-05-07T12:51:35;19.65;73.81
73750;SHT30;62058;48.406;-4.514;2023-05-07T12:54:00;19.74;72.27
73750;SHT30;62058;48.406;-4.514;2023-05-07T12:56:26;19.84;70.02
73750;SHT30;62058;48.406;-4.514;2023-05-07T12:58:51;19.86;72.25
73750;SHT30;62058;48.406;-4.514;2023-05-07T13:01:16;19.96;76.05
73750;SHT30;62058;48.406;-4.514;2023-05-07T13:03:48;20.02;69.54
73750;SHT30;62058;48.406;-4.514;2023-05-07T13:06:13;20.16;73.53
73750;SHT30;62058;48.406;-4.514;2023-05-07T13:08:41;20.39;70.89
73750;SHT30;62058;48.406;-4.514;2023-05-07T13:11:10;20.59;77.90
73750;SHT30;62058;48.406;-4.514;2023-05-07T13:13:37;20.70;77.58
73750;SHT30;62058;48.406;-4.514;2023-05-07T13:16:04;20.72;68.28
73750;SHT30;62058;48.406;-4.514;2023-05-07T13:18:31;20.87;71.70
73750;SHT30;62058;48.406;-4.514;2023-05-07T13:20:57;21.01;72.86
73750;SHT30;62058;48.406;-4.514;2023-05-07T13:23:22;21.21;69.93
73750;SHT30;62058;48.406;-4.514;2023-05-07T13:25:48;21.30;70.08
73750;SHT30;62058;48.406;-4.514;2023-05-07T13:28:14;21.28;65.29
73750;SHT30;62058;48.406;-4.514;2023-05-07T13:30:39;21.35;65.39
73750;SHT30;62058;48.406;-4.514;2023-05-07T13:33:06;21.32;69.24
73750;SHT30;62058;48.406;-4.514;2023-05-07T13:35:31;21.21;64.70
73750;SHT30;62058;48.406;-4.514;2023-05-07T13:37:57;21.34;71.44
73750;SHT30;62058;48.406;-4.514;2023-05-07T13:40:22;21.51;69.87
73750;SHT30;62058;48.406;-4.514;2023-05-07T13:42:48;21.61;64.15
73750;SHT30;62058;48.406;-4.514;2023-05-07T13:45:14;21.83;63.29
73750;SHT30;62058;48.406;-4.514;2023-05-07T13:47:43;22.03;63.41
73750;SHT30;62058;48.406;-4.514;2023-05-07T13:50:10;22.09;61.98
73750;SHT30;62058;48.406;-4.514;2023-05-07T13:52:37;22.29;70.27
73750;SHT30;62058;48.406;-4.514;2023-05-07T13:55:03;22.36;71.39
73750;SHT30;62058;48.406;-4.514;2023-05-07T13:57:28;22.35;65.50
73750;SHT30;62058;48.406;-4.514;2023-05-07T13:59:53;22.23;71.30
73750;SHT30;62058;48.406;-4.514;2023-05-07T14:02:19;21.99;68.64
73750;SHT30;62058;48.406;-4.514;2023-05-07T14:04:44;21.77;69.72
73750;SHT30;62058;48.406;-4.514;2023-05-07T14:07:10;21.61;66.87
73750;SHT30;62058;48.406;-4.514;2023-05-07T14:09:35;21.48;66.61
73750;SHT30;62058;48.406;-4.514;2023-05-07T14:12:01;21.48;68.67
73750;SHT30;62058;48.406;-4.514;2023-05-07T14:14:27;21.57;71.36
73750;SHT30;62058;48.406;-4.514;2023-05-07T14:16:52;21.50;65.65
73750;SHT30;62058;48.406;-4.514;2023-05-07T14:19:17;21.47;71.65
73750;SHT30;62058;48.406;-4.514;2023-05-07T14:21:43;21.40;69.89
73750;SHT30;62058;48.406;-4.514;2023-05-07T14:24:08;21.30;70.74
73750;SHT30;62058;48.406;-4.514;2023-05-07T14:26:34;21.15;69.53
73750;SHT30;62058;48.406;-4.514;2023-05-07T14:28:59;21.00;72.36
73750;SHT30;62058;48.406;-4.514;2023-05-07T14:31:25;20.93;69.45
73750;SHT30;62058;48.406;-4.514;2023-05-07T14:33:50;20.75;66.68
73750;SHT30;62058;48.406;-4.514;2023-05-07T14:36:17;20.67;74.15
73750;SHT30;62058;48.406;-4.514;2023-05-07T14:38:45;20.63;67.52
73750;SHT30;62058;48.406;-4.514;2023-05-07T14:41:10;20.67;68.02
73750;SHT30;62058;48.406;-4.514;2023-05-07T14:43:36;21.00;72.08
73750;SHT30;62058;48.406;-4.514;2023-05-07T14:46:01;21.27;67.77
73750;SHT30;62058;48.406;-4.514;2023-05-07T14:48:26;21.61;70.12
73750;SHT30;62058;48.406;-4.514;2023-05-07T14:50:52;21.68;68.40
73750;SHT30;62058;48.406;-4.514;2023-05-07T14:53:17;21.61;69.17
73750;SHT30;62058;48.406;-4.514;2023-05-07T14:55:42;21.48;70.99
73750;SHT30;62058;48.406;-4.514;2023-05-07T14:58:08;20.90;67.30
73750;SHT30;62058;48.406;-4.514;2023-05-07T15:00:33;20.46;67.93
73750;SHT30;62058;48.406;-4.514;2023-05-07T15:03:05;20.50;72.65
73750;SHT30;62058;48.406;-4.514;2023-05-07T15:05:31;20.30;69.52
73750;SHT30;62058;48.406;-4.514;2023-05-07T15:07:57;20.36;70.57
73750;SHT30;62058;48.406;-4.514;2023-05-07T15:10:22;20.35;68.58
73750;SHT30;62058;48.406;-4.514;2023-05-07T15:12:47;20.47;67.87
73750;SHT30;62058;48.406;-4.514;2023-05-07T15:15:13;20.76;67.86
73750;SHT30;62058;48.406;-4.514;2023-05-07T15:17:38;22.59;68.12
73750;SHT30;62058;48.406;-4.514;2023-05-07T15:20:04;23.80;62.62
73750;SHT30;62058;48.406;-4.514;2023-05-07T15:22:30;24.23;61.75
73750;SHT30;62058;48.406;-4.514;2023-05-07T15:24:55;24.95;60.21